< < Back
Terminal Aerodrome Forecast


Current Version              Previous Versions:   1  2  3  4  5  6  7  8  9  

Terminal Aerodrome Forecast

159
FTUS44 KMOB 012300
TAFPNS
TAF
KPNS 012334Z 0200/0224 17010KT P6SM FEW030 SCT150 OVC250
     FM020600 17003KT P6SM SCT250
     FM021800 16007KT P6SM SCT050=

Latest METAR

258
SAUS70 KWBC 021700 RRJ
MTRPNS
METAR KPNS 021653Z 20009KT 10SM SCT031 31/23 A3008 RMK AO2 SLP188
T03110228


USA.gov is the U.S. government's official web portal to all federal, state and local government web resources and services.